sensor_id;sensor_type;location;lat;lon;timestamp;temperature;humidity
1948;DHT22;974;52.400;9.818;2023-12-20T00:01:46;6.90;99.90
1948;DHT22;974;52.400;9.818;2023-12-20T00:04:12;6.80;99.90
1948;DHT22;974;52.400;9.818;2023-12-20T00:06:37;6.80;99.90
1948;DHT22;974;52.400;9.818;2023-12-20T00:09:03;6.80;99.90
1948;DHT22;974;52.400;9.818;2023-12-20T00:11:28;6.80;99.90
1948;DHT22;974;52.400;9.818;2023-12-20T00:13:54;6.80;99.90
1948;DHT22;974;52.400;9.818;2023-12-20T00:16:20;6.80;99.90
1948;DHT22;974;52.400;9.818;2023-12-20T00:18:45;6.70;99.90
1948;DHT22;974;52.400;9.818;2023-12-20T00:21:11;6.70;99.90
1948;DHT22;974;52.400;9.818;2023-12-20T00:23:36;6.70;99.90
1948;DHT22;974;52.400;9.818;2023-12-20T00:26:02;6.60;99.90
1948;DHT22;974;52.400;9.818;2023-12-20T00:28:27;6.60;99.90
1948;DHT22;974;52.400;9.818;2023-12-20T00:30:53;6.60;99.90
1948;DHT22;974;52.400;9.818;2023-12-20T00:33:19;6.50;99.90
1948;DHT22;974;52.400;9.818;2023-12-20T00:35:44;6.50;99.90
1948;DHT22;974;52.400;9.818;2023-12-20T00:38:09;6.50;99.90
1948;DHT22;974;52.400;9.818;2023-12-20T00:40:36;6.50;99.90
1948;DHT22;974;52.400;9.818;2023-12-20T00:43:02;6.50;99.90
1948;DHT22;974;52.400;9.818;2023-12-20T00:45:27;6.40;99.90
1948;DHT22;974;52.400;9.818;2023-12-20T00:47:53;6.40;99.90
1948;DHT22;974;52.400;9.818;2023-12-20T00:50:18;6.40;99.90
1948;DHT22;974;52.400;9.818;2023-12-20T00:52:44;6.40;99.90
1948;DHT22;974;52.400;9.818;2023-12-20T00:55:09;6.40;99.90
1948;DHT22;974;52.400;9.818;2023-12-20T00:57:35;6.40;99.90
1948;DHT22;974;52.400;9.818;2023-12-20T01:00:01;6.40;99.90
1948;DHT22;974;52.400;9.818;2023-12-20T01:02:26;6.40;99.90
1948;DHT22;974;52.400;9.818;2023-12-20T01:04:52;6.30;99.90
1948;DHT22;974;52.400;9.818;2023-12-20T01:07:17;6.30;99.90
1948;DHT22;974;52.400;9.818;2023-12-20T01:09:43;6.30;99.90
1948;DHT22;974;52.400;9.818;2023-12-20T01:12:08;6.30;99.90
1948;DHT22;974;52.400;9.818;2023-12-20T01:14:34;6.30;99.90
1948;DHT22;974;52.400;9.818;2023-12-20T01:16:59;6.30;99.90
1948;DHT22;974;52.400;9.818;2023-12-20T01:19:25;6.20;99.90
1948;DHT22;974;52.400;9.818;2023-12-20T01:21:52;6.20;99.90
1948;DHT22;974;52.400;9.818;2023-12-20T01:24:17;6.20;99.90
1948;DHT22;974;52.400;9.818;2023-12-20T01:26:43;6.20;99.90
1948;DHT22;974;52.400;9.818;2023-12-20T01:29:08;6.30;99.90
1948;DHT22;974;52.400;9.818;2023-12-20T01:31:34;6.20;99.90
1948;DHT22;974;52.400;9.818;2023-12-20T01:33:59;6.20;99.90
1948;DHT22;974;52.400;9.818;2023-12-20T01:36:25;6.20;99.90
1948;DHT22;974;52.400;9.818;2023-12-20T01:38:50;6.20;99.90
1948;DHT22;974;52.400;9.818;2023-12-20T01:41:16;6.20;99.90
1948;DHT22;974;52.400;9.818;2023-12-20T01:43:41;6.20;99.90
1948;DHT22;974;52.400;9.818;2023-12-20T01:46:07;6.20;99.90
1948;DHT22;974;52.400;9.818;2023-12-20T01:48:32;6.20;99.90
1948;DHT22;974;52.400;9.818;2023-12-20T01:50:59;6.20;99.90
1948;DHT22;974;52.400;9.818;2023-12-20T01:53:26;6.20;99.90
1948;DHT22;974;52.400;9.818;2023-12-20T01:55:54;6.10;99.90
1948;DHT22;974;52.400;9.818;2023-12-20T01:58:21;6.10;99.90
1948;DHT22;974;52.400;9.818;2023-12-20T02:00:47;6.10;99.90
1948;DHT22;974;52.400;9.818;2023-12-20T02:03:13;6.10;99.90
1948;DHT22;974;52.400;9.818;2023-12-20T02:05:39;6.00;99.90
1948;DHT22;974;52.400;9.818;2023-12-20T02:08:05;6.00;99.90
1948;DHT22;974;52.400;9.818;2023-12-20T02:10:31;6.00;99.90
1948;DHT22;974;52.400;9.818;2023-12-20T02:12:57;5.90;99.90
1948;DHT22;974;52.400;9.818;2023-12-20T02:15:22;6.00;99.90
1948;DHT22;974;52.400;9.818;2023-12-20T02:17:49;5.90;99.90
1948;DHT22;974;52.400;9.818;2023-12-20T02:20:14;6.00;99.90
1948;DHT22;974;52.400;9.818;2023-12-20T02:22:40;5.90;99.90
1948;DHT22;974;52.400;9.818;2023-12-20T02:25:06;5.90;99.90
1948;DHT22;974;52.400;9.818;2023-12-20T02:27:31;5.90;99.90
1948;DHT22;974;52.400;9.818;2023-12-20T02:29:57;5.80;99.90
1948;DHT22;974;52.400;9.818;2023-12-20T02:32:24;5.90;99.90
1948;DHT22;974;52.400;9.818;2023-12-20T02:34:51;5.90;99.90
1948;DHT22;974;52.400;9.818;2023-12-20T02:37:17;5.80;99.90
1948;DHT22;974;52.400;9.818;2023-12-20T02:39:42;5.90;99.90
1948;DHT22;974;52.400;9.818;2023-12-20T02:42:08;5.90;99.90
1948;DHT22;974;52.400;9.818;2023-12-20T02:44:33;5.90;99.90
1948;DHT22;974;52.400;9.818;2023-12-20T02:46:59;5.80;99.90
1948;DHT22;974;52.400;9.818;2023-12-20T02:49:24;5.90;99.90
1948;DHT22;974;52.400;9.818;2023-12-20T02:51:50;5.80;99.90
1948;DHT22;974;52.400;9.818;2023-12-20T02:54:15;5.80;99.90
1948;DHT22;974;52.400;9.818;2023-12-20T02:56:41;5.70;99.90
1948;DHT22;974;52.400;9.818;2023-12-20T02:59:06;5.70;99.90
1948;DHT22;974;52.400;9.818;2023-12-20T03:01:33;5.60;99.90
1948;DHT22;974;52.400;9.818;2023-12-20T03:03:59;5.60;99.90
1948;DHT22;974;52.400;9.818;2023-12-20T03:06:25;5.60;99.90
1948;DHT22;974;52.400;9.818;2023-12-20T03:08:50;5.60;99.90
1948;DHT22;974;52.400;9.818;2023-12-20T03:11:16;5.60;99.90
1948;DHT22;974;52.400;9.818;2023-12-20T03:13:41;5.50;99.90
1948;DHT22;974;52.400;9.818;2023-12-20T03:16:11;5.50;99.90
1948;DHT22;974;52.400;9.818;2023-12-20T03:18:37;5.50;99.90
1948;DHT22;974;52.400;9.818;2023-12-20T03:21:03;5.50;99.90
1948;DHT22;974;52.400;9.818;2023-12-20T03:23:29;5.50;99.90
1948;DHT22;974;52.400;9.818;2023-12-20T03:25:56;5.50;99.90
1948;DHT22;974;52.400;9.818;2023-12-20T03:28:21;5.50;99.90
1948;DHT22;974;52.400;9.818;2023-12-20T03:30:48;5.50;99.90
1948;DHT22;974;52.400;9.818;2023-12-20T03:33:14;5.40;99.90
1948;DHT22;974;52.400;9.818;2023-12-20T03:35:39;5.40;99.90
1948;DHT22;974;52.400;9.818;2023-12-20T03:38:05;5.40;99.90
1948;DHT22;974;52.400;9.818;2023-12-20T03:40:30;5.40;99.90
1948;DHT22;974;52.400;9.818;2023-12-20T03:42:56;5.40;99.90
1948;DHT22;974;52.400;9.818;2023-12-20T03:45:21;5.40;99.90
1948;DHT22;974;52.400;9.818;2023-12-20T03:47:46;5.50;99.90
1948;DHT22;974;52.400;9.818;2023-12-20T03:50:13;5.40;99.90
1948;DHT22;974;52.400;9.818;2023-12-20T03:52:38;5.40;99.90
1948;DHT22;974;52.400;9.818;2023-12-20T03:55:04;5.40;99.90
1948;DHT22;974;52.400;9.818;2023-12-20T03:57:29;5.40;99.90
1948;DHT22;974;52.400;9.818;2023-12-20T03:59:55;5.40;99.90
1948;DHT22;974;52.400;9.818;2023-12-20T04:02:20;5.50;99.90
1948;DHT22;974;52.400;9.818;2023-12-20T04:04:46;5.50;99.90
1948;DHT22;974;52.400;9.818;2023-12-20T04:07:11;5.50;99.90
1948;DHT22;974;52.400;9.818;2023-12-20T04:09:37;5.50;99.90
1948;DHT22;974;52.400;9.818;2023-12-20T04:12:03;5.50;99.90
1948;DHT22;974;52.400;9.818;2023-12-20T04:14:28;5.50;99.90
1948;DHT22;974;52.400;9.818;2023-12-20T04:16:54;5.50;99.90
1948;DHT22;974;52.400;9.818;2023-12-20T04:19:20;5.60;99.90
1948;DHT22;974;52.400;9.818;2023-12-20T04:21:45;5.60;99.90
1948;DHT22;974;52.400;9.818;2023-12-20T04:24:10;5.50;99.90
1948;DHT22;974;52.400;9.818;2023-12-20T04:26:36;5.50;99.90
1948;DHT22;974;52.400;9.818;2023-12-20T04:29:02;5.50;99.90
1948;DHT22;974;52.400;9.818;2023-12-20T04:31:27;5.50;99.90
1948;DHT22;974;52.400;9.818;2023-12-20T04:33:52;5.60;99.90
1948;DHT22;974;52.400;9.818;2023-12-20T04:36:18;5.60;99.90
1948;DHT22;974;52.400;9.818;2023-12-20T04:38:44;5.60;99.90
1948;DHT22;974;52.400;9.818;2023-12-20T04:41:09;5.60;99.90
1948;DHT22;974;52.400;9.818;2023-12-20T04:43:35;5.60;99.90
1948;DHT22;974;52.400;9.818;2023-12-20T04:46:00;5.60;99.90
1948;DHT22;974;52.400;9.818;2023-12-20T04:48:25;5.60;99.90
1948;DHT22;974;52.400;9.818;2023-12-20T04:50:51;5.60;99.90
1948;DHT22;974;52.400;9.818;2023-12-20T04:53:16;5.60;99.90
1948;DHT22;974;52.400;9.818;2023-12-20T04:55:42;5.60;99.90
1948;DHT22;974;52.400;9.818;2023-12-20T04:58:07;5.60;99.90
1948;DHT22;974;52.400;9.818;2023-12-20T05:00:33;5.60;99.90
1948;DHT22;974;52.400;9.818;2023-12-20T05:02:58;5.60;99.90
1948;DHT22;974;52.400;9.818;2023-12-20T05:05:24;5.60;99.90
1948;DHT22;974;52.400;9.818;2023-12-20T05:07:49;5.60;99.90
1948;DHT22;974;52.400;9.818;2023-12-20T05:10:15;5.70;99.90
1948;DHT22;974;52.400;9.818;2023-12-20T05:12:40;5.80;99.90
1948;DHT22;974;52.400;9.818;2023-12-20T05:15:06;5.70;99.90
1948;DHT22;974;52.400;9.818;2023-12-20T05:17:32;5.70;99.90
1948;DHT22;974;52.400;9.818;2023-12-20T05:19:58;5.80;99.90
1948;DHT22;974;52.400;9.818;2023-12-20T05:22:23;5.80;99.90
1948;DHT22;974;52.400;9.818;2023-12-20T05:24:49;5.80;99.90
1948;DHT22;974;52.400;9.818;2023-12-20T05:27:14;5.80;99.90
1948;DHT22;974;52.400;9.818;2023-12-20T05:29:40;5.80;99.90
1948;DHT22;974;52.400;9.818;2023-12-20T05:32:05;5.80;99.90
1948;DHT22;974;52.400;9.818;2023-12-20T05:34:31;5.90;99.90
1948;DHT22;974;52.400;9.818;2023-12-20T05:36:57;5.80;99.90
1948;DHT22;974;52.400;9.818;2023-12-20T05:39:23;5.80;99.90
1948;DHT22;974;52.400;9.818;2023-12-20T05:41:48;5.80;99.90
1948;DHT22;974;52.400;9.818;2023-12-20T05:44:14;5.70;99.90
1948;DHT22;974;52.400;9.818;2023-12-20T05:46:39;5.70;99.90
1948;DHT22;974;52.400;9.818;2023-12-20T05:49:05;5.80;99.90
1948;DHT22;974;52.400;9.818;2023-12-20T05:51:31;5.80;99.90
1948;DHT22;974;52.400;9.818;2023-12-20T05:53:57;5.80;99.90
1948;DHT22;974;52.400;9.818;2023-12-20T05:56:23;5.80;99.90
1948;DHT22;974;52.400;9.818;2023-12-20T05:58:48;5.80;99.90
1948;DHT22;974;52.400;9.818;2023-12-20T06:01:17;5.90;99.90
1948;DHT22;974;52.400;9.818;2023-12-20T06:03:43;5.90;99.90
1948;DHT22;974;52.400;9.818;2023-12-20T06:06:09;5.80;99.90
1948;DHT22;974;52.400;9.818;2023-12-20T06:08:35;5.80;99.90
1948;DHT22;974;52.400;9.818;2023-12-20T06:11:01;5.80;99.90
1948;DHT22;974;52.400;9.818;2023-12-20T06:13:26;5.80;99.90
1948;DHT22;974;52.400;9.818;2023-12-20T06:15:53;5.80;99.90
1948;DHT22;974;52.400;9.818;2023-12-20T06:18:19;5.80;99.90
1948;DHT22;974;52.400;9.818;2023-12-20T06:20:45;5.80;99.90
1948;DHT22;974;52.400;9.818;2023-12-20T06:23:10;5.90;99.90
1948;DHT22;974;52.400;9.818;2023-12-20T06:25:35;5.80;99.90
1948;DHT22;974;52.400;9.818;2023-12-20T06:28:01;5.80;99.90
1948;DHT22;974;52.400;9.818;2023-12-20T06:30:26;5.80;99.90
1948;DHT22;974;52.400;9.818;2023-12-20T06:32:53;5.80;99.90
1948;DHT22;974;52.400;9.818;2023-12-20T06:35:19;5.80;99.90
1948;DHT22;974;52.400;9.818;2023-12-20T06:37:44;5.80;99.90
1948;DHT22;974;52.400;9.818;2023-12-20T06:40:10;5.80;99.90
1948;DHT22;974;52.400;9.818;2023-12-20T06:42:36;5.90;99.90
1948;DHT22;974;52.400;9.818;2023-12-20T06:45:02;5.80;99.90
1948;DHT22;974;52.400;9.818;2023-12-20T06:47:27;5.80;99.90
1948;DHT22;974;52.400;9.818;2023-12-20T06:49:53;5.80;99.90
1948;DHT22;974;52.400;9.818;2023-12-20T06:52:18;5.80;99.90
1948;DHT22;974;52.400;9.818;2023-12-20T06:54:44;5.80;99.90
1948;DHT22;974;52.400;9.818;2023-12-20T06:57:09;5.80;99.90
1948;DHT22;974;52.400;9.818;2023-12-20T06:59:39;5.80;99.90
1948;DHT22;974;52.400;9.818;2023-12-20T07:02:05;5.80;99.90
1948;DHT22;974;52.400;9.818;2023-12-20T07:04:31;5.80;99.90
1948;DHT22;974;52.400;9.818;2023-12-20T07:06:56;5.70;99.90
1948;DHT22;974;52.400;9.818;2023-12-20T07:09:25;5.70;99.90
1948;DHT22;974;52.400;9.818;2023-12-20T07:11:51;5.70;99.90
1948;DHT22;974;52.400;9.818;2023-12-20T07:14:17;5.60;99.90
1948;DHT22;974;52.400;9.818;2023-12-20T07:16:42;5.60;99.90
1948;DHT22;974;52.400;9.818;2023-12-20T07:19:08;5.60;99.90
1948;DHT22;974;52.400;9.818;2023-12-20T07:21:33;5.60;99.90
1948;DHT22;974;52.400;9.818;2023-12-20T07:23:59;5.60;99.90
1948;DHT22;974;52.400;9.818;2023-12-20T07:26:24;5.60;99.90
1948;DHT22;974;52.400;9.818;2023-12-20T07:28:50;5.60;99.90
1948;DHT22;974;52.400;9.818;2023-12-20T07:31:16;5.60;99.90
1948;DHT22;974;52.400;9.818;2023-12-20T07:33:42;5.60;99.90
1948;DHT22;974;52.400;9.818;2023-12-20T07:36:07;5.70;99.90
1948;DHT22;974;52.400;9.818;2023-12-20T07:38:33;5.70;99.90
1948;DHT22;974;52.400;9.818;2023-12-20T07:40:59;5.80;99.90
1948;DHT22;974;52.400;9.818;2023-12-20T07:43:24;5.80;99.90
1948;DHT22;974;52.400;9.818;2023-12-20T07:45:50;5.80;99.90
1948;DHT22;974;52.400;9.818;2023-12-20T07:48:15;5.80;99.90
1948;DHT22;974;52.400;9.818;2023-12-20T07:50:41;5.80;99.90
1948;DHT22;974;52.400;9.818;2023-12-20T07:53:07;5.80;99.90
1948;DHT22;974;52.400;9.818;2023-12-20T07:55:33;5.80;99.90
1948;DHT22;974;52.400;9.818;2023-12-20T07:57:59;5.70;99.90
1948;DHT22;974;52.400;9.818;2023-12-20T08:00:24;5.70;99.90
1948;DHT22;974;52.400;9.818;2023-12-20T08:02:50;5.60;99.90
1948;DHT22;974;52.400;9.818;2023-12-20T08:05:15;5.60;99.90
1948;DHT22;974;52.400;9.818;2023-12-20T08:07:41;5.50;99.90
1948;DHT22;974;52.400;9.818;2023-12-20T08:10:06;5.60;99.90
1948;DHT22;974;52.400;9.818;2023-12-20T08:12:32;5.60;99.90
1948;DHT22;974;52.400;9.818;2023-12-20T08:14:58;5.60;99.90
1948;DHT22;974;52.400;9.818;2023-12-20T08:17:24;5.60;99.90
1948;DHT22;974;52.400;9.818;2023-12-20T08:19:50;5.60;99.90
1948;DHT22;974;52.400;9.818;2023-12-20T08:22:15;5.70;99.90
1948;DHT22;974;52.400;9.818;2023-12-20T08:24:41;5.70;99.90
1948;DHT22;974;52.400;9.818;2023-12-20T08:27:06;5.70;99.90
1948;DHT22;974;52.400;9.818;2023-12-20T08:29:32;5.70;99.90
1948;DHT22;974;52.400;9.818;2023-12-20T08:31:59;5.80;99.90
1948;DHT22;974;52.400;9.818;2023-12-20T08:34:25;5.80;99.90
1948;DHT22;974;52.400;9.818;2023-12-20T08:36:51;5.80;99.90
1948;DHT22;974;52.400;9.818;2023-12-20T08:39:19;5.90;99.90
1948;DHT22;974;52.400;9.818;2023-12-20T08:41:44;5.90;99.90
1948;DHT22;974;52.400;9.818;2023-12-20T08:44:10;6.00;99.90
1948;DHT22;974;52.400;9.818;2023-12-20T08:46:36;6.00;99.90
1948;DHT22;974;52.400;9.818;2023-12-20T08:49:02;6.00;99.90
1948;DHT22;974;52.400;9.818;2023-12-20T08:51:27;6.00;99.90
1948;DHT22;974;52.400;9.818;2023-12-20T08:53:53;6.00;99.90
1948;DHT22;974;52.400;9.818;2023-12-20T08:56:19;6.10;99.90
1948;DHT22;974;52.400;9.818;2023-12-20T08:58:45;6.00;99.90
1948;DHT22;974;52.400;9.818;2023-12-20T09:01:12;6.10;99.90
1948;DHT22;974;52.400;9.818;2023-12-20T09:03:37;6.10;99.90
1948;DHT22;974;52.400;9.818;2023-12-20T09:06:03;6.00;99.90
1948;DHT22;974;52.400;9.818;2023-12-20T09:08:29;6.10;99.90
1948;DHT22;974;52.400;9.818;2023-12-20T09:10:54;6.20;99.90
1948;DHT22;974;52.400;9.818;2023-12-20T09:13:20;6.20;99.90
1948;DHT22;974;52.400;9.818;2023-12-20T09:15:47;6.30;99.90
1948;DHT22;974;52.400;9.818;2023-12-20T09:18:12;6.30;99.90
1948;DHT22;974;52.400;9.818;2023-12-20T09:20:38;6.30;99.90
1948;DHT22;974;52.400;9.818;2023-12-20T09:23:03;6.30;99.90
1948;DHT22;974;52.400;9.818;2023-12-20T09:25:29;6.40;99.90
1948;DHT22;974;52.400;9.818;2023-12-20T09:27:55;6.30;99.90
1948;DHT22;974;52.400;9.818;2023-12-20T09:30:20;6.30;99.90
1948;DHT22;974;52.400;9.818;2023-12-20T09:32:46;6.30;99.90
1948;DHT22;974;52.400;9.818;2023-12-20T09:35:11;6.30;99.90
1948;DHT22;974;52.400;9.818;2023-12-20T09:37:37;6.20;99.90
1948;DHT22;974;52.400;9.818;2023-12-20T09:40:03;6.30;99.90
1948;DHT22;974;52.400;9.818;2023-12-20T09:42:48;6.30;99.90
1948;DHT22;974;52.400;9.818;2023-12-20T09:45:15;6.40;99.90
1948;DHT22;974;52.400;9.818;2023-12-20T09:47:43;6.40;99.90
1948;DHT22;974;52.400;9.818;2023-12-20T09:50:09;6.40;99.90
1948;DHT22;974;52.400;9.818;2023-12-20T09:52:36;6.40;99.90
1948;DHT22;974;52.400;9.818;2023-12-20T09:55:05;6.40;99.90
1948;DHT22;974;52.400;9.818;2023-12-20T09:57:32;6.40;99.90
1948;DHT22;974;52.400;9.818;2023-12-20T09:59:58;6.50;99.90
1948;DHT22;974;52.400;9.818;2023-12-20T10:02:25;6.50;99.90
1948;DHT22;974;52.400;9.818;2023-12-20T10:04:55;6.50;99.90
1948;DHT22;974;52.400;9.818;2023-12-20T10:07:21;6.60;99.90
1948;DHT22;974;52.400;9.818;2023-12-20T10:09:47;6.60;99.90
1948;DHT22;974;52.400;9.818;2023-12-20T10:12:13;6.60;99.90
1948;DHT22;974;52.400;9.818;2023-12-20T10:14:39;6.70;99.90
1948;DHT22;974;52.400;9.818;2023-12-20T10:17:05;6.70;99.90
1948;DHT22;974;52.400;9.818;2023-12-20T10:19:32;6.60;99.90
1948;DHT22;974;52.400;9.818;2023-12-20T10:22:00;6.70;99.90
1948;DHT22;974;52.400;9.818;2023-12-20T10:24:28;6.70;99.90
1948;DHT22;974;52.400;9.818;2023-12-20T10:27:07;6.80;99.90
1948;DHT22;974;52.400;9.818;2023-12-20T10:29:36;6.80;99.90
1948;DHT22;974;52.400;9.818;2023-12-20T10:34:45;6.80;99.90
1948;DHT22;974;52.400;9.818;2023-12-20T10:37:11;6.80;99.90
1948;DHT22;974;52.400;9.818;2023-12-20T10:39:36;6.80;99.90
1948;DHT22;974;52.400;9.818;2023-12-20T10:42:03;6.80;99.90
1948;DHT22;974;52.400;9.818;2023-12-20T10:44:28;6.80;99.90
1948;DHT22;974;52.400;9.818;2023-12-20T10:46:54;6.70;99.90
1948;DHT22;974;52.400;9.818;2023-12-20T10:49:24;6.60;99.90
1948;DHT22;974;52.400;9.818;2023-12-20T10:51:53;6.60;99.90
1948;DHT22;974;52.400;9.818;2023-12-20T10:54:19;6.60;99.90
1948;DHT22;974;52.400;9.818;2023-12-20T10:56:45;6.60;99.90
1948;DHT22;974;52.400;9.818;2023-12-20T10:59:12;6.70;99.90
1948;DHT22;974;52.400;9.818;2023-12-20T11:01:40;6.70;99.90
1948;DHT22;974;52.400;9.818;2023-12-20T11:04:08;6.70;99.90
1948;DHT22;974;52.400;9.818;2023-12-20T11:06:46;6.70;99.90
1948;DHT22;974;52.400;9.818;2023-12-20T11:09:33;6.70;99.90
1948;DHT22;974;52.400;9.818;2023-12-20T11:12:25;6.70;99.90
1948;DHT22;974;52.400;9.818;2023-12-20T11:14:55;6.70;99.90
1948;DHT22;974;52.400;9.818;2023-12-20T11:17:22;6.60;99.90
1948;DHT22;974;52.400;9.818;2023-12-20T11:22:20;6.60;99.90
1948;DHT22;974;52.400;9.818;2023-12-20T11:24:47;6.50;99.90
1948;DHT22;974;52.400;9.818;2023-12-20T11:27:13;6.40;99.90
1948;DHT22;974;52.400;9.818;2023-12-20T11:29:39;6.30;99.90
1948;DHT22;974;52.400;9.818;2023-12-20T11:34:51;6.30;99.90
1948;DHT22;974;52.400;9.818;2023-12-20T11:37:16;6.30;99.90
1948;DHT22;974;52.400;9.818;2023-12-20T11:39:44;6.30;99.90
1948;DHT22;974;52.400;9.818;2023-12-20T11:42:10;6.30;99.90
1948;DHT22;974;52.400;9.818;2023-12-20T11:44:36;6.20;99.90
1948;DHT22;974;52.400;9.818;2023-12-20T11:47:02;6.10;99.90
1948;DHT22;974;52.400;9.818;2023-12-20T11:49:28;6.10;99.90
1948;DHT22;974;52.400;9.818;2023-12-20T11:51:57;6.00;99.90
1948;DHT22;974;52.400;9.818;2023-12-20T11:54:22;6.00;99.90
1948;DHT22;974;52.400;9.818;2023-12-20T11:56:48;5.90;99.90
1948;DHT22;974;52.400;9.818;2023-12-20T11:59:13;5.80;99.90
1948;DHT22;974;52.400;9.818;2023-12-20T12:01:39;5.70;99.90
1948;DHT22;974;52.400;9.818;2023-12-20T12:04:05;5.70;99.90
1948;DHT22;974;52.400;9.818;2023-12-20T12:06:31;5.70;99.90
1948;DHT22;974;52.400;9.818;2023-12-20T12:08:57;5.60;99.90
1948;DHT22;974;52.400;9.818;2023-12-20T12:11:23;5.60;99.90
1948;DHT22;974;52.400;9.818;2023-12-20T12:13:48;5.60;99.90
1948;DHT22;974;52.400;9.818;2023-12-20T12:16:18;5.60;99.90
1948;DHT22;974;52.400;9.818;2023-12-20T12:18:44;5.50;99.90
1948;DHT22;974;52.400;9.818;2023-12-20T12:21:10;5.40;99.90
1948;DHT22;974;52.400;9.818;2023-12-20T12:23:35;5.50;99.90
1948;DHT22;974;52.400;9.818;2023-12-20T12:26:04;5.40;99.90
1948;DHT22;974;52.400;9.818;2023-12-20T12:28:30;5.40;99.90
1948;DHT22;974;52.400;9.818;2023-12-20T12:30:58;5.40;99.90
1948;DHT22;974;52.400;9.818;2023-12-20T12:33:27;5.40;99.90
1948;DHT22;974;52.400;9.818;2023-12-20T12:35:53;5.40;99.90
1948;DHT22;974;52.400;9.818;2023-12-20T12:38:22;5.40;99.90
1948;DHT22;974;52.400;9.818;2023-12-20T12:40:49;5.50;99.90
1948;DHT22;974;52.400;9.818;2023-12-20T12:43:15;5.40;99.90
1948;DHT22;974;52.400;9.818;2023-12-20T12:45:41;5.40;99.90
1948;DHT22;974;52.400;9.818;2023-12-20T12:48:06;5.50;99.90
1948;DHT22;974;52.400;9.818;2023-12-20T12:50:32;5.50;99.90
1948;DHT22;974;52.400;9.818;2023-12-20T12:52:58;5.60;99.90
1948;DHT22;974;52.400;9.818;2023-12-20T12:55:23;5.60;99.90
1948;DHT22;974;52.400;9.818;2023-12-20T12:57:49;5.60;99.90
1948;DHT22;974;52.400;9.818;2023-12-20T13:00:14;5.60;99.90
1948;DHT22;974;52.400;9.818;2023-12-20T13:02:40;5.60;99.90
1948;DHT22;974;52.400;9.818;2023-12-20T13:05:09;5.50;99.90
1948;DHT22;974;52.400;9.818;2023-12-20T13:07:34;5.50;99.90
1948;DHT22;974;52.400;9.818;2023-12-20T13:10:00;5.50;99.90
1948;DHT22;974;52.400;9.818;2023-12-20T13:12:26;5.40;99.90
1948;DHT22;974;52.400;9.818;2023-12-20T13:14:51;5.30;99.90
1948;DHT22;974;52.400;9.818;2023-12-20T13:17:17;5.30;99.90
1948;DHT22;974;52.400;9.818;2023-12-20T13:19:43;5.30;99.90
1948;DHT22;974;52.400;9.818;2023-12-20T13:22:08;5.30;99.90
1948;DHT22;974;52.400;9.818;2023-12-20T13:24:34;5.30;99.90
1948;DHT22;974;52.400;9.818;2023-12-20T13:27:00;5.30;99.90
1948;DHT22;974;52.400;9.818;2023-12-20T13:29:25;5.30;99.90
1948;DHT22;974;52.400;9.818;2023-12-20T13:31:52;5.30;99.90
1948;DHT22;974;52.400;9.818;2023-12-20T13:34:18;5.40;99.90
1948;DHT22;974;52.400;9.818;2023-12-20T13:36:44;5.40;99.90
1948;DHT22;974;52.400;9.818;2023-12-20T13:39:13;5.40;99.90
1948;DHT22;974;52.400;9.818;2023-12-20T13:41:38;5.40;99.90
1948;DHT22;974;52.400;9.818;2023-12-20T13:44:04;5.50;99.90
1948;DHT22;974;52.400;9.818;2023-12-20T13:46:29;5.50;99.90
1948;DHT22;974;52.400;9.818;2023-12-20T13:48:55;5.60;99.90
1948;DHT22;974;52.400;9.818;2023-12-20T13:51:21;5.60;99.90
1948;DHT22;974;52.400;9.818;2023-12-20T13:53:46;5.60;99.90
1948;DHT22;974;52.400;9.818;2023-12-20T13:56:14;5.50;99.90
1948;DHT22;974;52.400;9.818;2023-12-20T13:58:39;5.60;99.90
1948;DHT22;974;52.400;9.818;2023-12-20T14:01:05;5.60;99.90
1948;DHT22;974;52.400;9.818;2023-12-20T14:03:32;5.60;99.90
1948;DHT22;974;52.400;9.818;2023-12-20T14:05:57;5.70;99.90
1948;DHT22;974;52.400;9.818;2023-12-20T14:08:23;5.70;99.90
1948;DHT22;974;52.400;9.818;2023-12-20T14:10:49;5.60;99.90
1948;DHT22;974;52.400;9.818;2023-12-20T14:13:15;5.60;99.90
1948;DHT22;974;52.400;9.818;2023-12-20T14:15:40;5.70;99.90
1948;DHT22;974;52.400;9.818;2023-12-20T14:18:06;5.70;99.90
1948;DHT22;974;52.400;9.818;2023-12-20T14:20:33;5.70;99.90
1948;DHT22;974;52.400;9.818;2023-12-20T14:23:02;5.70;99.90
1948;DHT22;974;52.400;9.818;2023-12-20T14:25:28;5.70;99.90
1948;DHT22;974;52.400;9.818;2023-12-20T14:27:54;5.70;99.90
1948;DHT22;974;52.400;9.818;2023-12-20T14:30:19;5.80;99.90
1948;DHT22;974;52.400;9.818;2023-12-20T14:32:45;5.80;99.90
1948;DHT22;974;52.400;9.818;2023-12-20T14:35:11;5.80;99.90
1948;DHT22;974;52.400;9.818;2023-12-20T14:37:37;5.80;99.90
1948;DHT22;974;52.400;9.818;2023-12-20T14:40:09;5.80;99.90
1948;DHT22;974;52.400;9.818;2023-12-20T14:42:36;5.80;99.90
1948;DHT22;974;52.400;9.818;2023-12-20T14:45:02;5.80;99.90
1948;DHT22;974;52.400;9.818;2023-12-20T14:47:28;5.80;99.90
1948;DHT22;974;52.400;9.818;2023-12-20T14:49:53;5.90;99.90
1948;DHT22;974;52.400;9.818;2023-12-20T14:52:19;5.80;99.90
1948;DHT22;974;52.400;9.818;2023-12-20T14:54:44;5.90;99.90
1948;DHT22;974;52.400;9.818;2023-12-20T14:57:10;5.90;99.90
1948;DHT22;974;52.400;9.818;2023-12-20T14:59:35;5.80;99.90
1948;DHT22;974;52.400;9.818;2023-12-20T15:02:01;6.40;99.90
1948;DHT22;974;52.400;9.818;2023-12-20T15:04:30;5.80;99.90
1948;DHT22;974;52.400;9.818;2023-12-20T15:06:56;5.80;99.90
1948;DHT22;974;52.400;9.818;2023-12-20T15:09:21;5.90;99.90
1948;DHT22;974;52.400;9.818;2023-12-20T15:11:47;5.90;99.90
1948;DHT22;974;52.400;9.818;2023-12-20T15:14:12;5.80;99.90
1948;DHT22;974;52.400;9.818;2023-12-20T15:16:44;5.80;99.90
1948;DHT22;974;52.400;9.818;2023-12-20T15:19:09;5.80;99.90
1948;DHT22;974;52.400;9.818;2023-12-20T15:21:35;5.90;99.90
1948;DHT22;974;52.400;9.818;2023-12-20T15:24:05;5.80;99.90
1948;DHT22;974;52.400;9.818;2023-12-20T15:26:37;5.80;99.90
1948;DHT22;974;52.400;9.818;2023-12-20T15:29:03;5.80;99.90
1948;DHT22;974;52.400;9.818;2023-12-20T15:31:29;5.80;99.90
1948;DHT22;974;52.400;9.818;2023-12-20T15:33:55;5.80;99.90
1948;DHT22;974;52.400;9.818;2023-12-20T15:36:20;5.80;99.90
1948;DHT22;974;52.400;9.818;2023-12-20T15:38:46;5.90;99.90
1948;DHT22;974;52.400;9.818;2023-12-20T15:41:18;5.90;99.90
1948;DHT22;974;52.400;9.818;2023-12-20T15:43:44;5.80;99.90
1948;DHT22;974;52.400;9.818;2023-12-20T15:46:10;5.80;99.90
1948;DHT22;974;52.400;9.818;2023-12-20T15:48:35;5.80;99.90
1948;DHT22;974;52.400;9.818;2023-12-20T15:51:08;5.90;99.90
1948;DHT22;974;52.400;9.818;2023-12-20T15:53:34;5.90;99.90
1948;DHT22;974;52.400;9.818;2023-12-20T15:55:59;5.90;99.90
1948;DHT22;974;52.400;9.818;2023-12-20T15:58:25;5.90;99.90
1948;DHT22;974;52.400;9.818;2023-12-20T16:00:51;5.80;99.90
1948;DHT22;974;52.400;9.818;2023-12-20T16:03:17;5.80;99.90
1948;DHT22;974;52.400;9.818;2023-12-20T16:05:43;5.70;99.90
1948;DHT22;974;52.400;9.818;2023-12-20T16:08:08;5.70;99.90
1948;DHT22;974;52.400;9.818;2023-12-20T16:10:34;5.70;99.90
1948;DHT22;974;52.400;9.818;2023-12-20T16:12:59;5.70;99.90
1948;DHT22;974;52.400;9.818;2023-12-20T16:15:24;5.60;99.90
1948;DHT22;974;52.400;9.818;2023-12-20T16:17:50;5.50;99.90
1948;DHT22;974;52.400;9.818;2023-12-20T16:20:15;5.40;99.90
1948;DHT22;974;52.400;9.818;2023-12-20T16:22:41;5.40;99.90
1948;DHT22;974;52.400;9.818;2023-12-20T16:25:07;5.30;99.90
1948;DHT22;974;52.400;9.818;2023-12-20T16:27:33;5.20;99.90
1948;DHT22;974;52.400;9.818;2023-12-20T16:30:00;5.20;99.90
1948;DHT22;974;52.400;9.818;2023-12-20T16:32:25;5.20;99.90
1948;DHT22;974;52.400;9.818;2023-12-20T16:34:51;5.10;99.90